sensor_id;sensor_type;location;lat;lon;timestamp;pressure;altitude;pressure_sealevel;temperature;humidity
22775;BME280;11554;51.106;3.684;2022-07-18T00:00:00;102361.14;;;16.69;66.25
22775;BME280;11554;51.106;3.684;2022-07-18T00:05:00;102353.8;;;16.55;66.04
22775;BME280;11554;51.106;3.684;2022-07-18T00:10:00;102341.75;;;16.47;66.93
22775;BME280;11554;51.106;3.684;2022-07-18T00:15:00;102335.51999999999;;;16.39;67.0
22775;BME280;11554;51.106;3.684;2022-07-18T00:20:00;102331.55;;;16.32;67.74
22775;BME280;11554;51.106;3.684;2022-07-18T00:25:00;102331.16;;;16.33;69.61
22775;BME280;11554;51.106;3.684;2022-07-18T00:30:00;102322.16;;;16.37;68.78
22775;BME280;11554;51.106;3.684;2022-07-18T00:35:00;102326.62;;;16.22;69.39
22775;BME280;11554;51.106;3.684;2022-07-18T00:40:00;102321.45000000001;;;16.17;68.94
22775;BME280;11554;51.106;3.684;2022-07-18T00:45:00;102316.88;;;16.11;68.98
22775;BME280;11554;51.106;3.684;2022-07-18T00:50:00;102313.81;;;16.02;69.25
22775;BME280;11554;51.106;3.684;2022-07-18T00:55:00;102315.16;;;15.89;71.12
22775;BME280;11554;51.106;3.684;2022-07-18T01:00:00;102312.83;;;15.76;70.73
22775;BME280;11554;51.106;3.684;2022-07-18T01:05:00;102311.31;;;15.64;70.28
22775;BME280;11554;51.106;3.684;2022-07-18T01:10:00;102308.81000000001;;;15.58;70.36
22775;BME280;11554;51.106;3.684;2022-07-18T01:15:00;102308.70999999999;;;15.49;69.85
22775;BME280;11554;51.106;3.684;2022-07-18T01:20:00;102309.25;;;15.45;70.47
22775;BME280;11554;51.106;3.684;2022-07-18T01:25:00;102307.69;;;15.41;71.43
22775;BME280;11554;51.106;3.684;2022-07-18T01:30:00;102303.52;;;15.37;71.66
22775;BME280;11554;51.106;3.684;2022-07-18T01:35:00;102303.18;;;15.29;72.19
22775;BME280;11554;51.106;3.684;2022-07-18T01:40:00;102305.43000000001;;;15.23;71.03
22775;BME280;11554;51.106;3.684;2022-07-18T01:45:00;102299.84;;;15.13;72.42
22775;BME280;11554;51.106;3.684;2022-07-18T01:50:00;102291.58;;;15.09;71.76
22775;BME280;11554;51.106;3.684;2022-07-18T01:55:00;102290.23;;;15.04;72.03
22775;BME280;11554;51.106;3.684;2022-07-18T02:00:00;102281.12999999999;;;14.99;72.83
22775;BME280;11554;51.106;3.684;2022-07-18T02:05:00;102284.83;;;14.91;72.21
22775;BME280;11554;51.106;3.684;2022-07-18T02:10:00;102274.63;;;14.86;73.3
22775;BME280;11554;51.106;3.684;2022-07-18T02:15:00;102278.11;;;14.81;73.01
22775;BME280;11554;51.106;3.684;2022-07-18T02:20:00;102276.92;;;14.75;72.08
22775;BME280;11554;51.106;3.684;2022-07-18T02:25:00;102264.51;;;14.67;73.74
22775;BME280;11554;51.106;3.684;2022-07-18T02:30:00;102264.34000000001;;;14.69;72.77
22775;BME280;11554;51.106;3.684;2022-07-18T02:35:00;102257.34;;;14.71;74.01
22775;BME280;11554;51.106;3.684;2022-07-18T02:40:00;102246.3;;;14.83;74.37
22775;BME280;11554;51.106;3.684;2022-07-18T02:45:00;102250.23;;;14.83;74.21
22775;BME280;11554;51.106;3.684;2022-07-18T02:50:00;102246.84;;;14.70;72.89
22775;BME280;11554;51.106;3.684;2022-07-18T02:55:00;102251.12000000001;;;14.63;73.99
22775;BME280;11554;51.106;3.684;2022-07-18T03:00:00;102247.14;;;14.68;74.26
22775;BME280;11554;51.106;3.684;2022-07-18T03:05:00;102246.61;;;14.85;74.33
22775;BME280;11554;51.106;3.684;2022-07-18T03:10:00;102245.04;;;15.14;74.01
22775;BME280;11554;51.106;3.684;2022-07-18T03:15:00;102244.73000000001;;;15.16;72.34
22775;BME280;11554;51.106;3.684;2022-07-18T03:20:00;102238.61;;;15.31;73.15
22775;BME280;11554;51.106;3.684;2022-07-18T03:25:00;102224.44;;;15.30;71.79
22775;BME280;11554;51.106;3.684;2022-07-18T03:30:00;102224.0;;;15.38;72.57
22775;BME280;11554;51.106;3.684;2022-07-18T03:35:00;102217.04999999999;;;15.32;72.13
22775;BME280;11554;51.106;3.684;2022-07-18T03:40:00;102199.41;;;15.48;72.41
22775;BME280;11554;51.106;3.684;2022-07-18T03:45:00;102183.14;;;15.64;72.34
22775;BME280;11554;51.106;3.684;2022-07-18T03:50:00;102180.17;;;15.72;72.08
22775;BME280;11554;51.106;3.684;2022-07-18T03:55:00;102178.39;;;15.82;71.45
22775;BME280;11554;51.106;3.684;2022-07-18T04:00:00;102180.7;;;15.97;70.58
22775;BME280;11554;51.106;3.684;2022-07-18T04:05:00;102176.33;;;16.02;70.3
22775;BME280;11554;51.106;3.684;2022-07-18T04:10:00;102174.42;;;16.01;70.16
22775;BME280;11554;51.106;3.684;2022-07-18T04:15:00;102177.66;;;16.06;69.75
22775;BME280;11554;51.106;3.684;2022-07-18T04:20:00;102181.79000000001;;;16.10;69.3
22775;BME280;11554;51.106;3.684;2022-07-18T04:25:00;102185.86;;;16.11;69.82
22775;BME280;11554;51.106;3.684;2022-07-18T04:30:00;102187.67;;;16.16;69.89
22775;BME280;11554;51.106;3.684;2022-07-18T04:35:00;102197.41;;;16.20;69.47
22775;BME280;11554;51.106;3.684;2022-07-18T04:40:00;102203.02;;;16.10;69.29
22775;BME280;11554;51.106;3.684;2022-07-18T04:45:00;102208.28;;;16.22;70.26
22775;BME280;11554;51.106;3.684;2022-07-18T04:50:00;102208.11;;;16.52;71.93
22775;BME280;11554;51.106;3.684;2022-07-18T04:55:00;102206.17;;;17.49;72.04
22775;BME280;11554;51.106;3.684;2022-07-18T05:00:00;102206.33;;;18.29;69.22
22775;BME280;11554;51.106;3.684;2022-07-18T05:05:00;102204.69;;;18.71;66.77
22775;BME280;11554;51.106;3.684;2022-07-18T05:10:00;102200.95;;;19.48;67.19
22775;BME280;11554;51.106;3.684;2022-07-18T05:15:00;102196.62;;;20.15;63.79
22775;BME280;11554;51.106;3.684;2022-07-18T05:20:00;102197.17000000001;;;20.70;62.21
22775;BME280;11554;51.106;3.684;2022-07-18T05:25:00;102202.20000000001;;;20.88;60.99
22775;BME280;11554;51.106;3.684;2022-07-18T05:30:00;102202.76;;;21.01;60.61
22775;BME280;11554;51.106;3.684;2022-07-18T05:35:00;102209.99;;;21.21;59.67
22775;BME280;11554;51.106;3.684;2022-07-18T05:40:00;102212.72;;;21.35;59.73
22775;BME280;11554;51.106;3.684;2022-07-18T05:45:00;102213.4;;;21.80;59.55
22775;BME280;11554;51.106;3.684;2022-07-18T05:50:00;102214.87;;;22.18;57.22
22775;BME280;11554;51.106;3.684;2022-07-18T05:55:00;102221.34;;;22.76;56.82
22775;BME280;11554;51.106;3.684;2022-07-18T06:00:00;102211.81;;;23.46;55.51
22775;BME280;11554;51.106;3.684;2022-07-18T06:05:00;102212.2;;;24.20;54.91
22775;BME280;11554;51.106;3.684;2022-07-18T06:10:00;102205.58;;;24.96;51.62
22775;BME280;11554;51.106;3.684;2022-07-18T06:15:00;102209.66;;;24.31;51.11
22775;BME280;11554;51.106;3.684;2022-07-18T06:20:00;102196.86;;;23.93;53.41
22775;BME280;11554;51.106;3.684;2022-07-18T06:25:00;102193.40999999999;;;23.75;54.59
22775;BME280;11554;51.106;3.684;2022-07-18T06:30:00;102195.84;;;24.06;55.09
22775;BME280;11554;51.106;3.684;2022-07-18T06:35:00;102194.59000000001;;;25.09;51.64
22775;BME280;11554;51.106;3.684;2022-07-18T06:40:00;102196.56;;;25.89;51.94
22775;BME280;11554;51.106;3.684;2022-07-18T06:45:00;102198.25;;;26.83;50.38
22775;BME280;11554;51.106;3.684;2022-07-18T06:50:00;102195.39;;;27.25;47.45
22775;BME280;11554;51.106;3.684;2022-07-18T06:55:00;102193.56;;;28.26;47.98
22775;BME280;11554;51.106;3.684;2022-07-18T07:00:00;102193.5;;;29.01;44.13
22775;BME280;11554;51.106;3.684;2022-07-18T07:05:00;102192.79000000001;;;29.34;42.92
22775;BME280;11554;51.106;3.684;2022-07-18T07:10:00;102185.38;;;29.99;43.16
22775;BME280;11554;51.106;3.684;2022-07-18T07:15:00;102185.20999999999;;;30.41;41.03
22775;BME280;11554;51.106;3.684;2022-07-18T07:20:00;102187.47;;;30.77;41.04
22775;BME280;11554;51.106;3.684;2022-07-18T07:25:00;102179.15000000001;;;31.18;39.46
22775;BME280;11554;51.106;3.684;2022-07-18T07:30:00;102175.61;;;31.60;38.28
22775;BME280;11554;51.106;3.684;2022-07-18T07:35:00;102172.36;;;31.95;39.99
22775;BME280;11554;51.106;3.684;2022-07-18T07:40:00;102172.34;;;32.05;37.73
22775;BME280;11554;51.106;3.684;2022-07-18T07:45:00;102169.51000000001;;;32.48;38.32
22775;BME280;11554;51.106;3.684;2022-07-18T07:50:00;102164.29000000001;;;32.79;37.68
22775;BME280;11554;51.106;3.684;2022-07-18T07:55:00;102165.5;;;33.28;35.87
22775;BME280;11554;51.106;3.684;2022-07-18T08:00:00;102164.54;;;33.59;36.33
22775;BME280;11554;51.106;3.684;2022-07-18T08:05:00;102157.44;;;33.77;35.97
22775;BME280;11554;51.106;3.684;2022-07-18T08:10:00;102159.14;;;34.15;35.85
22775;BME280;11554;51.106;3.684;2022-07-18T08:15:00;102159.16;;;34.07;36.41
22775;BME280;11554;51.106;3.684;2022-07-18T08:20:00;102163.2;;;34.42;35.76
22775;BME280;11554;51.106;3.684;2022-07-18T08:25:00;102166.54999999999;;;34.50;35.33
22775;BME280;11554;51.106;3.684;2022-07-18T08:30:00;102164.42;;;34.77;34.72
22775;BME280;11554;51.106;3.684;2022-07-18T08:35:00;102163.44;;;34.87;34.53
22775;BME280;11554;51.106;3.684;2022-07-18T08:40:00;102163.05;;;35.07;34.59
22775;BME280;11554;51.106;3.684;2022-07-18T08:45:00;102161.94;;;35.07;34.82
22775;BME280;11554;51.106;3.684;2022-07-18T08:50:00;102161.87999999999;;;35.25;34.03
22775;BME280;11554;51.106;3.684;2022-07-18T08:55:00;102158.65;;;35.13;33.9
22775;BME280;11554;51.106;3.684;2022-07-18T09:00:01;102158.75;;;35.25;34.67
22775;BME280;11554;51.106;3.684;2022-07-18T09:05:00;102153.95999999999;;;35.08;33.99
22775;BME280;11554;51.106;3.684;2022-07-18T09:10:00;102156.59000000001;;;35.22;33.93
22775;BME280;11554;51.106;3.684;2022-07-18T09:15:03;102147.09;;;35.43;33.97
22775;BME280;11554;51.106;3.684;2022-07-18T09:20:01;102147.24;;;35.67;33.89
22775;BME280;11554;51.106;3.684;2022-07-18T09:25:02;102147.24;;;35.67;32.84
22775;BME280;11554;51.106;3.684;2022-07-18T09:35:04;102150.85;;;35.65;33.29
22775;BME280;11554;51.106;3.684;2022-07-18T09:45:00;102145.81;;;35.84;32.86
22775;BME280;11554;51.106;3.684;2022-07-18T09:50:00;102151.72;;;35.92;31.72
22775;BME280;11554;51.106;3.684;2022-07-18T09:55:03;102146.36;;;36.14;31.88
22775;BME280;11554;51.106;3.684;2022-07-18T10:00:00;102144.61;;;36.24;31.48
22775;BME280;11554;51.106;3.684;2022-07-18T10:05:00;102142.66;;;36.11;31.29
22775;BME280;11554;51.106;3.684;2022-07-18T10:10:00;102147.68000000001;;;36.68;32.11
22775;BME280;11554;51.106;3.684;2022-07-18T10:15:00;102148.01;;;36.94;30.5
22775;BME280;11554;51.106;3.684;2022-07-18T10:20:02;102144.65;;;37.32;30.76
22775;BME280;11554;51.106;3.684;2022-07-18T10:25:02;102144.56;;;37.29;30.02
22775;BME280;11554;51.106;3.684;2022-07-18T10:30:07;102141.57;;;37.71;29.59
22775;BME280;11554;51.106;3.684;2022-07-18T10:35:00;102134.67000000001;;;37.69;29.3
22775;BME280;11554;51.106;3.684;2022-07-18T10:45:00;102129.40999999999;;;38.03;29.67
22775;BME280;11554;51.106;3.684;2022-07-18T10:50:01;102133.53;;;38.55;29.11
22775;BME280;11554;51.106;3.684;2022-07-18T11:00:00;102128.68999999999;;;38.57;29.53
22775;BME280;11554;51.106;3.684;2022-07-18T11:05:00;102123.51;;;38.49;27.91
22775;BME280;11554;51.106;3.684;2022-07-18T11:10:00;102122.24;;;38.78;28.44
22775;BME280;11554;51.106;3.684;2022-07-18T11:15:01;102115.62;;;39.10;27.6
22775;BME280;11554;51.106;3.684;2022-07-18T11:25:00;102108.06999999999;;;39.70;27.73
22775;BME280;11554;51.106;3.684;2022-07-18T11:30:00;102106.22;;;38.86;26.79
22775;BME280;11554;51.106;3.684;2022-07-18T11:35:00;102106.37000000001;;;39.16;29.24
22775;BME280;11554;51.106;3.684;2022-07-18T11:40:03;102091.52;;;39.40;27.18
22775;BME280;11554;51.106;3.684;2022-07-18T11:45:00;102089.9;;;39.47;27.48
22775;BME280;11554;51.106;3.684;2022-07-18T11:50:00;102082.89;;;40.12;26.45
22775;BME280;11554;51.106;3.684;2022-07-18T11:55:00;102072.72;;;39.82;26.69
22775;BME280;11554;51.106;3.684;2022-07-18T12:00:00;102065.95;;;39.89;27.25
22775;BME280;11554;51.106;3.684;2022-07-18T12:05:00;102063.98000000001;;;40.06;28.26
22775;BME280;11554;51.106;3.684;2022-07-18T12:15:00;102048.1;;;40.42;27.73
22775;BME280;11554;51.106;3.684;2022-07-18T12:25:00;102047.34;;;40.56;26.49
22775;BME280;11554;51.106;3.684;2022-07-18T12:30:03;102042.46;;;39.82;28.29
22775;BME280;11554;51.106;3.684;2022-07-18T12:35:00;102045.59000000001;;;40.29;26.19
22775;BME280;11554;51.106;3.684;2022-07-18T12:40:01;102045.01000000001;;;40.63;25.56
22775;BME280;11554;51.106;3.684;2022-07-18T12:45:00;102039.17;;;40.40;24.43
22775;BME280;11554;51.106;3.684;2022-07-18T12:50:00;102036.13;;;40.47;24.79
22775;BME280;11554;51.106;3.684;2022-07-18T12:55:00;102036.95;;;40.85;24.33
22775;BME280;11554;51.106;3.684;2022-07-18T13:00:00;102030.26999999999;;;40.65;24.51
22775;BME280;11554;51.106;3.684;2022-07-18T13:05:00;102023.78;;;40.59;26.96
22775;BME280;11554;51.106;3.684;2022-07-18T13:10:00;102023.14;;;40.76;25.76
22775;BME280;11554;51.106;3.684;2022-07-18T13:15:00;102012.77;;;40.93;24.36
22775;BME280;11554;51.106;3.684;2022-07-18T13:20:00;102007.98;;;41.57;25.84
22775;BME280;11554;51.106;3.684;2022-07-18T13:25:00;102008.51;;;41.68;25.67
22775;BME280;11554;51.106;3.684;2022-07-18T13:30:00;102004.68;;;41.77;25.83
22775;BME280;11554;51.106;3.684;2022-07-18T13:35:00;101996.27;;;41.34;23.08
22775;BME280;11554;51.106;3.684;2022-07-18T13:40:00;101991.75;;;41.62;23.75
22775;BME280;11554;51.106;3.684;2022-07-18T13:45:00;101987.81;;;42.02;24.77
22775;BME280;11554;51.106;3.684;2022-07-18T13:50:00;101985.39;;;41.67;23.63
22775;BME280;11554;51.106;3.684;2022-07-18T13:55:00;101983.58;;;42.11;26.01
22775;BME280;11554;51.106;3.684;2022-07-18T14:00:00;101979.97;;;41.96;23.77
22775;BME280;11554;51.106;3.684;2022-07-18T14:05:00;101970.65;;;41.70;23.98
22775;BME280;11554;51.106;3.684;2022-07-18T14:10:00;101965.26;;;41.87;23.39
22775;BME280;11554;51.106;3.684;2022-07-18T14:15:00;101959.03;;;41.72;24.45
22775;BME280;11554;51.106;3.684;2022-07-18T14:20:00;101958.53;;;41.99;25.29
22775;BME280;11554;51.106;3.684;2022-07-18T14:25:00;101956.45;;;42.07;23.99
22775;BME280;11554;51.106;3.684;2022-07-18T14:30:00;101953.23;;;41.94;22.48
22775;BME280;11554;51.106;3.684;2022-07-18T14:35:00;101946.95;;;41.43;24.26
22775;BME280;11554;51.106;3.684;2022-07-18T14:40:00;101939.62;;;41.83;23.36
22775;BME280;11554;51.106;3.684;2022-07-18T14:45:00;101943.55;;;41.79;23.14
22775;BME280;11554;51.106;3.684;2022-07-18T14:50:00;101941.68;;;41.54;23.83
22775;BME280;11554;51.106;3.684;2022-07-18T14:55:00;101940.54;;;41.29;24.74
22775;BME280;11554;51.106;3.684;2022-07-18T15:00:00;101940.61;;;41.36;23.75
22775;BME280;11554;51.106;3.684;2022-07-18T15:05:00;101935.47;;;41.43;24.52
22775;BME280;11554;51.106;3.684;2022-07-18T15:10:00;101931.31;;;41.42;22.43
22775;BME280;11554;51.106;3.684;2022-07-18T15:15:00;101927.92;;;41.52;24.45
22775;BME280;11554;51.106;3.684;2022-07-18T15:20:00;101921.25;;;41.55;24.47
22775;BME280;11554;51.106;3.684;2022-07-18T15:25:00;101918.91;;;41.64;22.59
22775;BME280;11554;51.106;3.684;2022-07-18T15:30:00;101913.12000000001;;;41.29;23.22
22775;BME280;11554;51.106;3.684;2022-07-18T15:35:00;101906.45;;;41.50;25.32
22775;BME280;11554;51.106;3.684;2022-07-18T15:40:00;101900.03;;;41.60;23.24
22775;BME280;11554;51.106;3.684;2022-07-18T15:45:00;101892.71;;;40.72;22.47
22775;BME280;11554;51.106;3.684;2022-07-18T15:50:00;101892.48999999999;;;40.52;22.82
22775;BME280;11554;51.106;3.684;2022-07-18T15:55:00;101893.5;;;40.99;24.25
22775;BME280;11554;51.106;3.684;2022-07-18T16:00:00;101886.72;;;40.95;22.42
22775;BME280;11554;51.106;3.684;2022-07-18T16:05:00;101883.08;;;41.07;24.9
22775;BME280;11554;51.106;3.684;2022-07-18T16:10:00;101870.98;;;40.80;22.97
22775;BME280;11554;51.106;3.684;2022-07-18T16:15:00;101870.09000000001;;;40.59;25.23
22775;BME280;11554;51.106;3.684;2022-07-18T16:20:00;101863.67;;;40.83;24.23
22775;BME280;11554;51.106;3.684;2022-07-18T16:25:00;101861.53;;;40.41;23.52
22775;BME280;11554;51.106;3.684;2022-07-18T16:30:00;101858.1;;;39.69;23.45
22775;BME280;11554;51.106;3.684;2022-07-18T16:35:00;101855.76;;;39.26;24.23
22775;BME280;11554;51.106;3.684;2022-07-18T16:40:00;101848.68000000001;;;39.31;24.5
22775;BME280;11554;51.106;3.684;2022-07-18T16:45:00;101842.33;;;39.34;23.5
22775;BME280;11554;51.106;3.684;2022-07-18T16:50:00;101837.0;;;39.23;24.15
22775;BME280;11554;51.106;3.684;2022-07-18T16:55:00;101827.99;;;39.39;23.73
22775;BME280;11554;51.106;3.684;2022-07-18T17:00:00;101823.58;;;39.05;23.32
22775;BME280;11554;51.106;3.684;2022-07-18T17:05:00;101817.11;;;39.04;23.65
22775;BME280;11554;51.106;3.684;2022-07-18T17:10:00;101811.92;;;38.99;23.61
22775;BME280;11554;51.106;3.684;2022-07-18T17:15:00;101810.14;;;38.91;25.18
22775;BME280;11554;51.106;3.684;2022-07-18T17:20:00;101811.41;;;38.44;25.34
22775;BME280;11554;51.106;3.684;2022-07-18T17:25:00;101810.08;;;38.22;25.36
22775;BME280;11554;51.106;3.684;2022-07-18T17:30:00;101811.33;;;37.91;26.2
22775;BME280;11554;51.106;3.684;2022-07-18T17:35:00;101806.47;;;37.82;27.26
22775;BME280;11554;51.106;3.684;2022-07-18T17:40:00;101806.01000000001;;;37.63;26.05
22775;BME280;11554;51.106;3.684;2022-07-18T17:45:00;101801.14;;;37.09;27.17
22775;BME280;11554;51.106;3.684;2022-07-18T17:50:00;101796.45000000001;;;36.82;28.27
22775;BME280;11554;51.106;3.684;2022-07-18T17:55:00;101793.3;;;36.47;26.33
22775;BME280;11554;51.106;3.684;2022-07-18T18:00:00;101794.68000000001;;;36.21;27.93
22775;BME280;11554;51.106;3.684;2022-07-18T18:05:00;101795.14;;;35.80;27.86
22775;BME280;11554;51.106;3.684;2022-07-18T18:10:00;101792.07;;;35.41;29.66
22775;BME280;11554;51.106;3.684;2022-07-18T18:15:00;101795.84;;;34.89;29.85
22775;BME280;11554;51.106;3.684;2022-07-18T18:20:00;101790.11;;;34.44;29.75
22775;BME280;11554;51.106;3.684;2022-07-18T18:25:00;101787.59999999999;;;33.96;29.87
22775;BME280;11554;51.106;3.684;2022-07-18T18:30:00;101792.47;;;33.58;30.62
22775;BME280;11554;51.106;3.684;2022-07-18T18:35:00;101791.99;;;33.30;32.55
22775;BME280;11554;51.106;3.684;2022-07-18T18:40:00;101796.95;;;32.97;32.29
22775;BME280;11554;51.106;3.684;2022-07-18T18:45:00;101796.3;;;32.68;33.12
22775;BME280;11554;51.106;3.684;2022-07-18T18:50:00;101786.81;;;32.36;32.42
22775;BME280;11554;51.106;3.684;2022-07-18T18:55:00;101786.27;;;32.07;33.07
22775;BME280;11554;51.106;3.684;2022-07-18T19:00:00;101781.12999999999;;;31.80;33.34
22775;BME280;11554;51.106;3.684;2022-07-18T19:05:00;101778.21;;;31.50;33.94
22775;BME280;11554;51.106;3.684;2022-07-18T19:10:00;101772.87;;;31.20;34.48
22775;BME280;11554;51.106;3.684;2022-07-18T19:15:00;101775.9;;;30.92;35.03
22775;BME280;11554;51.106;3.684;2022-07-18T19:20:00;101771.92;;;30.65;35.36
22775;BME280;11554;51.106;3.684;2022-07-18T19:25:00;101774.18000000001;;;30.39;36.24
22775;BME280;11554;51.106;3.684;2022-07-18T19:30:00;101777.53;;;30.09;36.83
22775;BME280;11554;51.106;3.684;2022-07-18T19:35:00;101776.14;;;29.72;37.21
22775;BME280;11554;51.106;3.684;2022-07-18T19:40:00;101781.5;;;29.41;38.01
22775;BME280;11554;51.106;3.684;2022-07-18T19:45:00;101780.68;;;29.04;38.47
22775;BME280;11554;51.106;3.684;2022-07-18T19:50:00;101788.2;;;28.69;39.39
22775;BME280;11554;51.106;3.684;2022-07-18T19:55:00;101792.55;;;28.39;41.01
22775;BME280;11554;51.106;3.684;2022-07-18T20:00:00;101788.03;;;28.16;40.64
22775;BME280;11554;51.106;3.684;2022-07-18T20:05:00;101789.51;;;27.82;41.87
22775;BME280;11554;51.106;3.684;2022-07-18T20:10:00;101787.81;;;27.55;42.08
22775;BME280;11554;51.106;3.684;2022-07-18T20:15:00;101787.2;;;27.24;42.58
22775;BME280;11554;51.106;3.684;2022-07-18T20:20:00;101789.67;;;27.03;42.54
22775;BME280;11554;51.106;3.684;2022-07-18T20:25:00;101787.92;;;26.91;42.76
22775;BME280;11554;51.106;3.684;2022-07-18T20:30:00;101789.25;;;26.67;43.35
22775;BME280;11554;51.106;3.684;2022-07-18T20:35:00;101788.22;;;26.33;44.5
22775;BME280;11554;51.106;3.684;2022-07-18T20:40:00;101782.84;;;26.17;44.61
22775;BME280;11554;51.106;3.684;2022-07-18T20:45:00;101784.48;;;26.02;45.02
22775;BME280;11554;51.106;3.684;2022-07-18T20:50:00;101791.02;;;25.75;46.31
22775;BME280;11554;51.106;3.684;2022-07-18T20:55:00;101796.15;;;25.47;47.95
22775;BME280;11554;51.106;3.684;2022-07-18T21:00:00;101799.87999999999;;;25.25;49.15
22775;BME280;11554;51.106;3.684;2022-07-18T21:05:00;101796.51;;;25.08;48.94
22775;BME280;11554;51.106;3.684;2022-07-18T21:10:00;101795.65;;;24.98;48.89
22775;BME280;11554;51.106;3.684;2022-07-18T21:15:00;101802.31;;;24.74;49.34
22775;BME280;11554;51.106;3.684;2022-07-18T21:20:00;101805.67;;;24.55;50.19
22775;BME280;11554;51.106;3.684;2022-07-18T21:25:00;101805.55;;;24.41;50.2
22775;BME280;11554;51.106;3.684;2022-07-18T21:30:00;101801.95;;;24.24;50.58
22775;BME280;11554;51.106;3.684;2022-07-18T21:35:00;101799.1;;;24.04;50.56
22775;BME280;11554;51.106;3.684;2022-07-18T21:40:00;101797.48;;;23.86;51.55
22775;BME280;11554;51.106;3.684;2022-07-18T21:45:00;101796.39;;;23.72;52.24
22775;BME280;11554;51.106;3.684;2022-07-18T21:50:00;101788.73;;;23.71;51.92
22775;BME280;11554;51.106;3.684;2022-07-18T21:55:00;101787.31;;;23.71;51.76
22775;BME280;11554;51.106;3.684;2022-07-18T22:00:00;101782.72;;;23.56;52.55
22775;BME280;11554;51.106;3.684;2022-07-18T22:05:00;101777.03;;;23.40;52.86
22775;BME280;11554;51.106;3.684;2022-07-18T22:10:00;101779.72;;;23.23;52.99
22775;BME280;11554;51.106;3.684;2022-07-18T22:15:00;101775.03;;;23.11;54.51
22775;BME280;11554;51.106;3.684;2022-07-18T22:20:00;101771.75;;;23.12;54.42
22775;BME280;11554;51.106;3.684;2022-07-18T22:25:00;101773.42;;;22.99;54.36
22775;BME280;11554;51.106;3.684;2022-07-18T22:30:00;101767.03;;;22.88;55.22
22775;BME280;11554;51.106;3.684;2022-07-18T22:35:00;101764.89;;;23.07;55.03
22775;BME280;11554;51.106;3.684;2022-07-18T22:40:00;101766.58;;;23.09;54.28
22775;BME280;11554;51.106;3.684;2022-07-18T22:45:00;101759.69;;;23.14;54.08
22775;BME280;11554;51.106;3.684;2022-07-18T22:50:00;101756.92;;;23.20;53.53
22775;BME280;11554;51.106;3.684;2022-07-18T22:55:00;101752.8;;;23.32;53.08
22775;BME280;11554;51.106;3.684;2022-07-18T23:00:00;101753.09;;;23.31;52.79
22775;BME280;11554;51.106;3.684;2022-07-18T23:05:00;101747.6;;;23.34;52.54
22775;BME280;11554;51.106;3.684;2022-07-18T23:10:00;101748.44;;;23.37;52.15
22775;BME280;11554;51.106;3.684;2022-07-18T23:15:00;101749.5;;;23.58;51.67
22775;BME280;11554;51.106;3.684;2022-07-18T23:20:00;101747.13;;;23.60;51.6
22775;BME280;11554;51.106;3.684;2022-07-18T23:25:00;101746.65;;;23.67;51.32
22775;BME280;11554;51.106;3.684;2022-07-18T23:30:00;101745.48;;;23.88;50.76
22775;BME280;11554;51.106;3.684;2022-07-18T23:35:00;101742.47;;;23.81;50.8
22775;BME280;11554;51.106;3.684;2022-07-18T23:40:00;101742.94;;;23.55;51.45
22775;BME280;11554;51.106;3.684;2022-07-18T23:45:00;101737.77;;;23.36;52.02
22775;BME280;11554;51.106;3.684;2022-07-18T23:50:00;101738.13;;;23.21;52.54
22775;BME280;11554;51.106;3.684;2022-07-18T23:55:00;101735.02;;;23.12;53.58
